Huguenot, New York
Current Conditions -  °F | °C
As of 12:53 PM on Monday 24 Nov 2014 (Local Time) from KFWN Reporting Station
Broken Clouds Broken Clouds  
Wind Chill: 71°   Ceiling: 3100
Heat Index: 71°   Visibility: 10mi
Dew Point: 57°   Wind: 13mph
Humidity: 61%   Direction: 200°SSW
Pressure: 29.56"   Gusts: 21mph
Location:  41.41°N, 74.61°W
Report Text: KFWN 241753Z AUTO 20011G18KT 10SM BKN031 BKN039 22/14 A2956 RMK AO2 SLP007 60000 T02170139 10217 20172 58021
Loading
Personal Weather Stations






























Interactive Weather Map New forecast layout! Learn more

10-Day Weather Forecast

Advertisements
Track Severe Weather on mobile